Time;durP1;ratioP1;P1;durP2;ratioP2;P2;SDS_P1;SDS_P2;PMS_P1;PMS_P2;Temp;Humidity;BMP_temperature;BMP_pressure;BME280_temperature;BME280_humidity;BME280_pressure;Samples;Min_cycle;Max_cycle;Signal;HPM_P1;HPM_P2
2023/01/15 00:00:09;;;;;;;10.50;1.35;;;;;;;6.62;100.00;99450.25;5044288;28;20129;-75
2023/01/15 00:02:35;;;;;;;11.98;1.63;;;;;;;6.64;100.00;99446.78;5037861;28;20504;-75
2023/01/15 00:05:02;;;;;;;11.02;1.60;;;;;;;6.63;100.00;99455.47;5043407;28;20139;-75
2023/01/15 00:07:27;;;;;;;15.82;1.48;;;;;;;6.61;100.00;99452.00;5040716;28;20024;-75
2023/01/15 00:09:52;;;;;;;22.35;2.08;;;;;;;6.59;100.00;99453.69;5046643;28;20021;-74
2023/01/15 00:12:18;;;;;;;8.40;2.17;;;;;;;6.63;100.00;99452.88;5045218;28;20025;-75
2023/01/15 00:14:44;;;;;;;12.18;1.60;;;;;;;6.66;100.00;99444.19;5037728;28;20491;-75
2023/01/15 00:17:09;;;;;;;13.65;1.40;;;;;;;6.71;100.00;99445.97;5043325;28;20035;-75
2023/01/15 00:19:35;;;;;;;15.05;1.45;;;;;;;6.71;100.00;99437.28;5042325;28;20025;-75
2023/01/15 00:22:00;;;;;;;16.67;1.77;;;;;;;6.66;100.00;99437.25;5039727;28;20033;-76
2023/01/15 00:29:53;;;;;;;10.70;1.77;;;;;;;6.63;100.00;99445.03;5041502;28;20279;-74
2023/01/15 00:32:19;;;;;;;8.63;1.60;;;;;;;6.63;100.00;99441.56;5037034;28;20030;-75
2023/01/15 00:34:44;;;;;;;11.75;1.80;;;;;;;6.60;100.00;99434.56;5041963;28;20032;-75
2023/01/15 00:37:09;;;;;;;11.93;1.50;;;;;;;6.51;100.00;99427.50;5053235;28;20028;-75
2023/01/15 00:39:35;;;;;;;7.90;1.60;;;;;;;6.52;100.00;99441.44;5042289;28;20039;-75
2023/01/15 00:42:01;;;;;;;9.13;1.40;;;;;;;6.54;100.00;99445.81;5041316;28;20024;-75
2023/01/15 00:44:27;;;;;;;4.63;1.60;;;;;;;6.50;100.00;99438.81;5037799;28;20033;-75
2023/01/15 00:46:52;;;;;;;11.77;2.13;;;;;;;6.50;100.00;99443.19;5042562;28;20031;-75
2023/01/15 00:49:17;;;;;;;10.70;1.48;;;;;;;6.46;100.00;99436.13;5045328;28;20027;-75
2023/01/15 00:51:43;;;;;;;12.30;2.25;;;;;;;6.46;100.00;99436.13;5040774;28;20034;-75
2023/01/15 00:54:08;;;;;;;8.07;1.40;;;;;;;6.36;100.00;99436.06;5039569;28;20467;-75
2023/01/15 00:56:34;;;;;;;8.95;1.70;;;;;;;6.39;100.00;99446.53;5043636;28;20104;-74
2023/01/15 00:59:04;;;;;;;11.68;1.50;;;;;;;6.43;100.00;99441.34;5035892;28;20085;-75
2023/01/15 01:01:29;;;;;;;11.52;1.80;;;;;;;6.46;100.00;99441.38;5037808;28;20025;-74
2023/01/15 01:03:55;;;;;;;14.85;1.85;;;;;;;6.39;100.00;99446.53;5040307;28;20485;-74
2023/01/15 01:06:20;;;;;;;11.13;1.73;;;;;;;6.39;100.00;99446.53;5040209;28;20056;-75
2023/01/15 01:08:46;;;;;;;11.23;1.63;;;;;;;6.43;100.00;99451.78;5045508;28;20021;-75
2023/01/15 01:11:15;;;;;;;12.95;1.65;;;;;;;6.43;100.00;99451.78;5044640;28;20765;-75
2023/01/15 01:13:40;;;;;;;12.65;2.33;;;;;;;6.42;100.00;99448.31;5041721;28;20021;-76
2023/01/15 01:16:29;;;;;;;10.15;1.42;;;;;;;6.40;100.00;99452.63;5043089;28;20032;-75
2023/01/15 01:18:55;;;;;;;6.15;1.40;;;;;;;6.44;100.00;99453.56;5044511;28;20041;-75
2023/01/15 01:21:20;;;;;;;10.77;2.50;;;;;;;6.40;100.00;99443.06;5041418;28;20388;-75
2023/01/15 01:23:46;;;;;;;6.65;1.50;;;;;;;6.40;100.00;99455.25;5038034;28;20074;-75
2023/01/15 01:26:12;;;;;;;19.02;1.70;;;;;;;6.37;100.00;99445.63;5046598;28;20881;-75
2023/01/15 01:28:38;;;;;;;8.85;1.80;;;;;;;6.39;100.00;99456.13;5044152;28;20053;-74
2023/01/15 01:31:05;;;;;;;8.43;1.27;;;;;;;6.38;100.00;99457.84;5041588;28;20110;-75
2023/01/15 01:33:30;;;;;;;7.50;1.17;;;;;;;6.38;100.00;99436.94;5038907;28;20199;-74
2023/01/15 01:35:55;;;;;;;18.50;2.25;;;;;;;6.38;100.00;99450.00;5038314;28;20113;-74
2023/01/15 01:38:21;;;;;;;11.00;1.33;;;;;;;6.34;100.00;99440.38;5038098;28;20033;-74
2023/01/15 01:40:46;;;;;;;14.23;1.55;;;;;;;6.43;100.00;99451.78;5041260;28;20321;-75
2023/01/15 01:43:26;;;;;;;16.60;3.28;;;;;;;6.43;100.00;99459.63;5035620;28;20017;-75
2023/01/15 01:45:53;;;;;;;14.52;1.77;;;;;;;6.43;100.00;99451.78;5039710;28;20036;-75
2023/01/15 01:48:22;;;;;;;12.63;2.28;;;;;;;6.41;100.00;99457.88;5045420;28;20021;-76
2023/01/15 01:50:49;;;;;;;21.05;2.08;;;;;;;6.42;100.00;99461.38;5049121;28;20499;-75
2023/01/15 01:53:28;;;;;;;9.48;1.75;;;;;;;6.43;100.00;99459.63;5041452;28;20698;-74
2023/01/15 01:55:55;;;;;;;11.65;1.42;;;;;;;6.41;100.00;99459.63;5054241;28;20546;-75
2023/01/15 01:58:22;;;;;;;15.55;2.17;;;;;;;6.39;100.00;99475.28;5046130;28;20025;-75
2023/01/15 02:00:50;;;;;;;8.73;1.20;;;;;;;6.41;100.00;99470.06;5043149;28;20122;-74
2023/01/15 02:03:19;;;;;;;12.57;1.60;;;;;;;6.41;100.00;99465.72;5039606;28;20045;-74
2023/01/15 02:05:57;;;;;;;12.70;2.40;;;;;;;6.40;100.00;99453.53;5045825;28;20020;-74
2023/01/15 02:08:22;;;;;;;9.02;1.23;;;;;;;6.41;100.00;99457.00;5042674;28;20608;-74
2023/01/15 02:10:52;;;;;;;6.10;1.35;;;;;;;6.38;100.00;99455.22;5043731;28;20107;-75
2023/01/15 02:13:31;;;;;;;10.98;1.40;;;;;;;6.34;100.00;99448.22;5042774;28;20432;-75
2023/01/15 02:16:15;;;;;;;14.48;2.03;;;;;;;6.31;100.00;99442.97;5042470;28;20472;-75
2023/01/15 02:18:46;;;;;;;8.27;1.75;;;;;;;6.33;100.00;99462.13;5038824;28;20029;-74
2023/01/15 02:21:29;;;;;;;18.75;2.53;;;;;;;6.31;100.00;99453.41;5045287;28;20098;-74
2023/01/15 02:24:16;;;;;;;13.73;1.90;;;;;;;6.31;100.00;99447.31;5040983;28;20056;-74
2023/01/15 02:27:09;;;;;;;9.70;1.77;;;;;;;6.28;100.00;99453.41;5059451;28;20039;-75
2023/01/15 02:30:00;;;;;;;10.77;1.33;;;;;;;6.32;100.00;99449.97;5039019;28;20036;-73
2023/01/15 02:32:51;;;;;;;13.32;1.90;;;;;;;6.31;100.00;99453.41;5038778;28;20041;-75
2023/01/15 02:35:26;;;;;;;10.02;2.08;;;;;;;6.28;100.00;99442.94;5036067;28;20049;-75
2023/01/15 02:37:56;;;;;;;10.32;1.27;;;;;;;6.24;100.00;99451.59;5043795;28;20063;-74
2023/01/15 02:40:25;;;;;;;8.75;1.67;;;;;;;6.25;100.00;99453.34;5041218;28;20025;-73
2023/01/15 02:42:51;;;;;;;8.93;1.55;;;;;;;6.23;100.00;99466.38;5045345;28;20385;-75
2023/01/15 02:45:25;;;;;;;7.18;1.83;;;;;;;6.21;100.00;99465.50;5042921;28;20025;-75
2023/01/15 02:47:53;;;;;;;;;;;;;;;6.22;100.00;99459.41;5043707;28;20039;-74
2023/01/15 02:50:24;;;;;;;6.57;1.30;;;;;;;6.20;100.00;99450.69;5041445;28;19927;-75
2023/01/15 02:53:00;;;;;;;12.07;1.88;;;;;;;6.17;100.00;99452.38;5043559;28;20021;-75
2023/01/15 02:55:31;;;;;;;12.23;1.48;;;;;;;6.20;100.00;99453.28;5043478;28;20124;-75
2023/01/15 02:58:00;;;;;;;16.20;1.58;;;;;;;6.15;100.00;99443.66;5043388;28;20565;-74
2023/01/15 03:00:30;;;;;;;10.35;1.63;;;;;;;6.14;100.00;99442.75;5041825;28;20062;-75
2023/01/15 03:03:26;;;;;;;12.88;1.67;;;;;;;6.09;100.00;99428.81;5044510;28;20057;-74
2023/01/15 03:06:02;;;;;;;7.15;1.27;;;;;;;6.16;100.00;99427.09;5028333;28;20065;-75
2023/01/15 03:08:28;;;;;;;7.35;1.35;;;;;;;6.13;100.00;99433.19;5041435;28;20040;-75
2023/01/15 03:11:09;;;;;;;15.65;2.20;;;;;;;6.13;100.00;99429.69;5045126;28;20036;-74
2023/01/15 03:13:53;;;;;;;10.18;1.25;;;;;;;6.09;100.00;99428.81;5042529;28;20102;-75
2023/01/15 03:16:38;;;;;;;4.60;0.82;;;;;;;6.08;100.00;99438.34;5049303;28;20055;-75
2023/01/15 03:19:14;;;;;;;9.95;1.67;;;;;;;6.08;100.00;99417.47;5044376;28;20515;-74
2023/01/15 03:21:55;;;;;;;5.00;0.85;;;;;;;6.08;100.00;99430.50;5042651;28;20461;-75
2023/01/15 03:24:28;;;;;;;5.25;1.20;;;;;;;6.07;100.00;99423.53;5040455;28;20501;-75
2023/01/15 03:26:53;;;;;;;8.68;1.27;;;;;;;6.05;100.00;99422.66;5042390;28;20110;-75
2023/01/15 03:29:21;;;;;;;11.05;1.80;;;;;;;6.04;100.00;99418.28;5040527;28;21173;-76
2023/01/15 03:31:48;;;;;;;9.10;1.60;;;;;;;6.05;100.00;99424.38;5041847;28;20492;-74
2023/01/15 03:34:14;;;;;;;5.97;1.83;;;;;;;6.05;100.00;99413.91;5040935;28;20028;-76
2023/01/15 03:36:39;;;;;;;23.63;1.75;;;;;;;6.03;100.00;99421.75;5039440;28;20041;-74
2023/01/15 03:39:05;;;;;;;11.75;1.50;;;;;;;6.05;100.00;99429.59;5041361;28;20650;-74
2023/01/15 03:41:45;;;;;;;9.02;1.50;;;;;;;6.00;100.00;99419.09;5042167;28;20097;-73
2023/01/15 03:44:24;;;;;;;5.85;1.13;;;;;;;6.02;100.00;99414.78;5043157;28;20025;-74
2023/01/15 03:47:23;;;;;;;10.23;1.45;;;;;;;6.00;100.00;99411.28;5043966;28;20384;-74
2023/01/15 03:50:23;;;;;;;5.72;1.65;;;;;;;6.02;100.00;99409.56;5041772;28;20048;-74
2023/01/15 03:52:54;;;;;;;9.10;1.83;;;;;;;6.03;100.00;99410.44;5035360;28;20068;-74
2023/01/15 03:55:32;;;;;;;9.00;1.10;;;;;;;6.05;100.00;99424.38;5046918;28;20384;-74
2023/01/15 03:58:23;;;;;;;5.30;1.33;;;;;;;6.02;100.00;99419.13;5037389;28;20036;-73
2023/01/15 04:00:52;;;;;;;13.13;1.67;;;;;;;6.03;100.00;99411.28;5028663;28;20412;-74
2023/01/15 04:03:21;;;;;;;9.43;1.35;;;;;;;6.03;100.00;99407.81;5045080;28;20044;-74
2023/01/15 04:05:49;;;;;;;14.07;1.33;;;;;;;6.00;100.00;99406.06;5042903;28;20037;-74
2023/01/15 04:08:15;;;;;;;10.93;1.33;;;;;;;5.99;100.00;99414.72;5040512;28;20765;-74
2023/01/15 04:10:53;;;;;;;15.85;1.52;;;;;;;5.95;100.00;99420.75;5044970;28;20115;-75
2023/01/15 04:13:19;;;;;;;7.20;1.38;;;;;;;5.94;100.00;99431.16;5042504;28;20029;-75
2023/01/15 04:15:44;;;;;;;9.88;1.73;;;;;;;5.90;100.00;99423.31;5041018;28;20090;-74
2023/01/15 04:18:09;;;;;;;6.60;0.82;;;;;;;5.91;100.00;99427.69;5039673;28;20498;-75
2023/01/15 04:20:35;;;;;;;12.75;1.60;;;;;;;5.93;100.00;99432.91;5042993;28;20473;-75
2023/01/15 04:23:00;;;;;;;16.63;1.98;;;;;;;5.92;100.00;99428.53;5040363;28;20032;-75
2023/01/15 04:25:25;;;;;;;14.52;1.35;;;;;;;5.99;100.00;99426.94;5054422;28;20033;-74
2023/01/15 04:27:53;;;;;;;10.15;1.63;;;;;;;5.99;100.00;99425.19;5044662;28;20036;-73
2023/01/15 04:30:19;;;;;;;9.93;1.27;;;;;;;5.98;100.00;99423.44;5042173;28;20135;-74
2023/01/15 04:32:48;;;;;;;10.43;1.15;;;;;;;6.00;100.00;99424.31;5034869;28;20476;-75
2023/01/15 04:35:13;;;;;;;10.85;1.65;;;;;;;5.99;100.00;99425.19;5040931;28;20066;-74
2023/01/15 04:37:39;;;;;;;8.27;1.52;;;;;;;6.05;100.00;99442.66;5041764;28;20032;-74
2023/01/15 04:40:05;;;;;;;10.75;1.10;;;;;;;6.05;100.00;99422.66;5035138;28;20055;-75
2023/01/15 04:45:14;;;;;;;9.68;1.38;;;;;;;6.06;100.00;99420.91;5044087;28;20047;-74
2023/01/15 04:47:39;;;;;;;9.55;1.55;;;;;;;6.02;100.00;99414.78;5038544;28;20025;-74
2023/01/15 04:50:05;;;;;;;10.48;1.67;;;;;;;6.00;100.00;99429.56;5040661;28;20040;-74
2023/01/15 04:52:30;;;;;;;14.30;1.58;;;;;;;5.99;100.00;99421.69;5042683;28;20443;-74
2023/01/15 04:54:56;;;;;;;15.57;1.88;;;;;;;5.95;100.00;99412.03;5043633;28;20100;-74
2023/01/15 04:57:21;;;;;;;13.90;1.42;;;;;;;5.98;93.89;99420.84;5042471;28;20477;-75
2023/01/15 04:59:47;;;;;;;6.60;1.23;;;;;;;6.00;92.32;99421.72;5040147;28;20021;-74
2023/01/15 05:02:12;;;;;;;8.48;2.63;;;;;;;5.99;89.55;99414.72;5036733;28;20063;-75
2023/01/15 05:04:37;;;;;;;7.15;1.20;;;;;;;5.98;88.67;99410.41;5040371;28;20041;-74
2023/01/15 05:07:04;;;;;;;9.48;1.75;;;;;;;5.94;90.37;99432.06;5040999;28;20024;-75
2023/01/15 05:09:29;;;;;;;7.07;1.65;;;;;;;5.97;84.91;99424.25;5038302;28;20040;-74
2023/01/15 05:11:54;;;;;;;8.63;1.10;;;;;;;5.98;82.39;99418.22;5042357;28;20054;-75
2023/01/15 05:14:20;;;;;;;7.88;1.20;;;;;;;5.97;84.53;99406.00;5041697;28;20021;-75
2023/01/15 05:16:45;;;;;;;3.88;0.65;;;;;;;5.92;83.94;99412.88;5045631;28;20050;-74
2023/01/15 05:19:10;;;;;;;10.65;1.45;;;;;;;5.92;84.92;99420.72;5039900;28;20152;-74
2023/01/15 05:21:40;;;;;;;10.45;1.33;;;;;;;5.95;85.34;99423.34;5043457;28;20025;-75
2023/01/15 05:24:07;;;;;;;10.68;1.20;;;;;;;5.94;85.16;99413.78;5045435;28;20033;-75
2023/01/15 05:26:34;;;;;;;5.38;0.90;;;;;;;5.90;86.44;99422.41;5041369;28;20036;-74
2023/01/15 05:29:01;;;;;;;8.32;1.40;;;;;;;5.86;87.00;99418.00;5043667;28;20020;-75
2023/01/15 05:31:28;;;;;;;16.30;1.40;;;;;;;5.86;85.23;99413.69;5044059;28;20070;-74
2023/01/15 05:33:54;;;;;;;6.90;1.42;;;;;;;5.82;82.30;99408.38;5047255;28;20032;-74
2023/01/15 05:36:26;;;;;;;10.60;1.38;;;;;;;5.83;83.35;99408.44;5044062;28;20068;-74
2023/01/15 05:38:53;;;;;;;7.68;1.77;;;;;;;5.79;84.81;99400.53;5040606;28;20378;-74
2023/01/15 05:44:28;;;;;;;3.40;0.82;;;;;;;5.68;86.39;99403.00;4999136;28;20041;-74
2023/01/15 05:46:57;;;;;;;8.80;1.70;;;;;;;5.67;81.52;99404.75;4997168;28;20068;-73
2023/01/15 05:49:25;;;;;;;8.00;1.20;;;;;;;5.65;82.71;99398.63;5023277;28;20128;-72
2023/01/15 05:51:52;;;;;;;8.60;1.10;;;;;;;5.61;77.05;99402.03;5047251;28;20477;-74
2023/01/15 05:54:20;;;;;;;15.80;1.30;;;;;;;5.58;79.49;99402.88;5042412;28;20025;-74
2023/01/15 05:56:46;;;;;;;3.72;0.80;;;;;;;5.54;83.17;99421.09;5039860;28;20033;-73
2023/01/15 05:59:13;;;;;;;14.82;1.25;;;;;;;5.55;81.81;99402.84;5043348;28;20029;-74
2023/01/15 06:01:38;;;;;;;11.60;1.10;;;;;;;5.51;82.79;99398.44;5042890;28;20032;-73
2023/01/15 06:04:05;;;;;;;4.55;1.13;;;;;;;5.48;82.09;99405.34;5038853;28;20716;-74
2023/01/15 06:06:32;;;;;;;7.47;1.27;;;;;;;5.47;83.31;99406.22;5041310;28;20610;-74
2023/01/15 06:08:57;;;;;;;5.40;1.98;;;;;;;5.47;81.21;99407.09;5045354;28;20503;-74
2023/01/15 06:11:23;;;;;;;7.85;1.20;;;;;;;5.50;82.07;99408.88;5056244;28;20116;-74
2023/01/15 06:13:49;;;;;;;8.38;1.60;;;;;;;5.49;83.42;99412.31;5040974;28;20064;-74
2023/01/15 06:16:14;;;;;;;8.95;1.00;;;;;;;5.48;83.07;99421.00;5045149;28;20025;-74
2023/01/15 06:18:40;;;;;;;6.88;1.50;;;;;;;5.49;82.96;99421.00;5048954;28;20109;-74
2023/01/15 06:21:08;;;;;;;11.38;1.40;;;;;;;5.54;82.29;99408.91;5054097;28;20023;-74
2023/01/15 06:23:37;;;;;;;7.57;1.52;;;;;;;5.52;83.87;99423.69;5058727;28;20123;-73
2023/01/15 06:26:07;;;;;;;9.13;1.95;;;;;;;5.50;86.08;99429.72;5044273;28;20108;-73
2023/01/15 06:28:33;;;;;;;12.18;1.90;;;;;;;5.47;87.13;99425.34;5057406;28;21443;-74
2023/01/15 06:30:59;;;;;;;7.85;1.08;;;;;;;5.46;86.91;99422.72;5040381;28;20033;-73
2023/01/15 06:33:24;;;;;;;11.55;1.52;;;;;;;5.45;85.83;99427.03;5041277;28;20092;-73
2023/01/15 06:35:51;;;;;;;7.47;1.25;;;;;;;5.47;86.32;99424.47;5045268;28;20032;-74
2023/01/15 06:38:16;;;;;;;7.22;1.05;;;;;;;5.45;87.34;99424.44;5043843;28;20388;-74
2023/01/15 06:40:42;;;;;;;12.65;1.02;;;;;;;5.54;85.56;99421.97;5039716;28;20024;-74
2023/01/15 06:48:51;;;;;;;15.70;2.15;;;;;;;5.51;91.00;99410.63;5016156;28;20052;-74
2023/01/15 06:51:18;;;;;;;10.65;0.98;;;;;;;5.51;91.89;99421.06;5041036;28;20527;-73
2023/01/15 06:53:43;;;;;;;12.48;1.67;;;;;;;5.47;92.93;99406.22;5044630;28;20028;-73
2023/01/15 06:56:09;;;;;;;15.48;1.58;;;;;;;5.43;95.08;99418.34;5044841;28;20404;-73
2023/01/15 06:58:34;;;;;;;9.35;1.40;;;;;;;5.39;94.21;99419.16;5043999;28;20362;-74
2023/01/15 07:00:59;;;;;;;11.18;1.40;;;;;;;5.46;93.74;99418.38;5048073;28;20032;-75
2023/01/15 07:03:25;;;;;;;4.20;1.58;;;;;;;5.40;94.26;99411.34;5050974;28;20044;-74
2023/01/15 07:05:51;;;;;;;8.23;1.55;;;;;;;5.38;94.20;99409.56;5053314;28;20031;-74
2023/01/15 07:08:16;;;;;;;12.38;1.52;;;;;;;5.40;95.43;99424.38;5055608;28;20025;-73
2023/01/15 07:10:41;;;;;;;12.70;1.30;;;;;;;5.38;93.74;99410.41;5052902;28;20036;-73
2023/01/15 07:13:09;;;;;;;11.88;1.40;;;;;;;5.41;94.96;99420.03;5053341;28;20021;-73
2023/01/15 07:15:36;;;;;;;11.40;1.20;;;;;;;5.41;95.41;99404.38;5051238;28;20365;-74
2023/01/15 07:18:03;;;;;;;7.32;1.17;;;;;;;5.45;95.16;99405.31;5050275;28;20156;-74
2023/01/15 07:20:28;;;;;;;16.95;2.28;;;;;;;5.46;96.84;99405.31;5050212;28;20142;-75
2023/01/15 07:22:53;;;;;;;4.85;1.10;;;;;;;5.49;95.10;99401.88;5031658;28;20107;-73
2023/01/15 07:25:19;;;;;;;11.25;1.48;;;;;;;5.49;96.50;99405.34;5056709;28;20062;-74
2023/01/15 07:27:47;;;;;;;7.10;1.50;;;;;;;5.48;97.96;99401.03;5061524;28;20020;-75
2023/01/15 07:30:13;;;;;;;11.38;1.85;;;;;;;5.47;99.76;99412.31;5051070;28;20108;-73
2023/01/15 07:32:40;;;;;;;4.47;1.02;;;;;;;5.48;98.39;99395.81;5047232;28;20489;-74
2023/01/15 07:35:05;;;;;;;7.85;1.13;;;;;;;5.52;96.87;99375.81;5053087;28;20028;-74
2023/01/15 07:37:31;;;;;;;8.40;1.10;;;;;;;5.60;96.82;99386.38;5052442;28;20036;-74
2023/01/15 07:39:56;;;;;;;11.82;1.73;;;;;;;5.61;98.63;99383.78;5048328;28;20037;-74
2023/01/15 07:50:36;;;;;;;4.05;1.20;;;;;;;5.61;100.00;99390.75;5053243;28;20050;-75
2023/01/15 07:53:02;;;;;;;9.48;1.45;;;;;;;5.57;100.00;99405.47;5052630;28;20116;-73
2023/01/15 07:55:27;;;;;;;9.82;1.85;;;;;;;5.62;100.00;99398.59;5044381;28;20037;-74
2023/01/15 07:57:53;;;;;;;14.18;1.92;;;;;;;5.60;100.00;99402.03;5044493;28;20090;-74
2023/01/15 08:00:21;;;;;;;8.45;1.83;;;;;;;5.59;100.00;99382.91;5066796;28;20513;-74
2023/01/15 08:02:49;;;;;;;13.65;1.88;;;;;;;5.70;98.98;99391.72;5049994;28;20045;-74
2023/01/15 08:05:15;;;;;;;15.98;2.60;;;;;;;5.80;98.06;99394.47;5043929;28;20075;-74
2023/01/15 08:07:41;;;;;;;8.65;1.30;;;;;;;5.82;98.48;99392.72;5048286;28;20051;-74
2023/01/15 08:10:09;;;;;;;18.05;1.40;;;;;;;5.84;98.33;99406.69;5045517;28;20124;-74
2023/01/15 08:15:19;;;;;;;18.20;1.98;;;;;;;5.87;97.64;99398.88;5053182;28;20044;-74
2023/01/15 08:17:47;;;;;;;9.75;1.58;;;;;;;5.93;96.53;99396.38;5047108;28;20472;-73
2023/01/15 08:20:14;;;;;;;13.90;1.67;;;;;;;5.94;98.36;99421.63;5049462;28;20509;-73
2023/01/15 08:22:39;;;;;;;11.07;1.80;;;;;;;5.94;99.64;99413.78;5046962;28;20473;-73
2023/01/15 08:25:06;;;;;;;13.40;1.10;;;;;;;5.85;100.00;99411.06;5047671;28;20025;-73
2023/01/15 08:27:32;;;;;;;10.00;1.27;;;;;;;5.82;100.00;99405.78;5049556;28;20033;-73
2023/01/15 08:29:57;;;;;;;5.28;1.08;;;;;;;5.71;100.00;99403.94;5046085;28;20028;-73
2023/01/15 08:32:23;;;;;;;7.85;1.88;;;;;;;5.65;100.00;99408.19;5048181;28;20032;-74
2023/01/15 08:34:49;;;;;;;15.52;1.77;;;;;;;5.66;100.00;99395.16;5053070;28;20031;-74
2023/01/15 08:37:14;;;;;;;5.75;1.00;;;;;;;5.71;100.00;99398.72;5048408;28;20029;-74
2023/01/15 08:39:39;;;;;;;8.50;1.30;;;;;;;5.77;100.00;99392.69;5050863;28;20468;-74
2023/01/15 08:42:05;;;;;;;10.52;1.98;;;;;;;5.80;100.00;99405.75;5049287;28;20473;-74
2023/01/15 08:44:31;;;;;;;11.20;1.38;;;;;;;5.82;100.00;99405.78;5047089;28;20151;-75
2023/01/15 08:46:57;;;;;;;9.35;1.80;;;;;;;5.83;100.00;99405.81;5049252;28;20017;-74
2023/01/15 08:49:22;;;;;;;13.70;2.10;;;;;;;5.80;100.00;99410.13;5050636;28;20023;-75
2023/01/15 08:51:50;;;;;;;11.27;1.60;;;;;;;5.80;100.00;99408.38;5046041;28;20113;-75
2023/01/15 08:54:16;;;;;;;12.07;1.23;;;;;;;5.83;100.00;99402.31;5049495;28;20064;-74
2023/01/15 08:56:42;;;;;;;10.02;2.03;;;;;;;5.85;100.00;99403.22;5045727;28;20094;-73
2023/01/15 08:59:07;;;;;;;6.38;1.00;;;;;;;5.86;100.00;99398.03;5036746;28;20108;-73
2023/01/15 09:01:33;;;;;;;10.85;1.30;;;;;;;5.88;100.00;99405.88;5043914;28;20024;-73
2023/01/15 09:04:00;;;;;;;9.38;1.02;;;;;;;5.89;100.00;99403.28;5047869;28;20045;-74
2023/01/15 09:06:26;;;;;;;12.82;1.23;;;;;;;5.90;100.00;99404.13;5047487;28;20043;-74
2023/01/15 09:08:52;;;;;;;9.40;1.00;;;;;;;5.87;100.00;99401.50;5050060;28;20408;-74
2023/01/15 09:11:17;;;;;;;13.80;1.20;;;;;;;5.91;100.00;99406.78;5048319;28;20029;-75
2023/01/15 09:13:47;;;;;;;12.10;1.63;;;;;;;5.94;100.00;99405.97;5044158;28;20032;-74
2023/01/15 09:16:12;;;;;;;11.85;1.80;;;;;;;5.96;100.00;99413.81;5050287;28;20091;-73
2023/01/15 09:18:38;;;;;;;15.25;1.90;;;;;;;5.95;100.00;99392.03;5049641;28;20025;-73
2023/01/15 09:21:05;;;;;;;5.10;1.10;;;;;;;5.96;100.00;99406.84;5052503;28;20381;-74
2023/01/15 09:23:30;;;;;;;10.98;1.30;;;;;;;5.95;100.00;99405.06;5050132;28;20052;-73
2023/01/15 09:25:58;;;;;;;9.25;1.98;;;;;;;6.01;100.00;99406.91;5043972;28;20515;-73
2023/01/15 09:28:24;;;;;;;14.48;1.65;;;;;;;6.02;100.00;99420.00;5052013;28;20021;-72
2023/01/15 09:30:50;;;;;;;6.47;1.10;;;;;;;6.09;100.00;99420.97;5049279;28;20031;-73
2023/01/15 09:33:16;;;;;;;10.43;2.10;;;;;;;6.08;100.00;99406.16;5054160;28;20013;-72
2023/01/15 09:35:42;;;;;;;15.18;1.58;;;;;;;6.12;100.00;99414.88;5057546;28;20059;-74
2023/01/15 09:38:18;;;;;;;11.07;1.45;;;;;;;6.18;100.00;99386.22;5050181;28;20024;-73
2023/01/15 09:40:54;;;;;;;11.63;1.30;;;;;;;6.18;100.00;99396.66;5038629;28;20033;-73
2023/01/15 09:43:44;;;;;;;13.65;1.95;;;;;;;6.15;100.00;99384.44;5051030;28;20487;-73
2023/01/15 09:46:31;;;;;;;12.10;1.85;;;;;;;6.17;100.00;99397.53;5036510;28;20029;-74
2023/01/15 09:49:03;;;;;;;10.23;1.17;;;;;;;6.21;100.00;99409.75;5050262;28;20399;-72
2023/01/15 09:51:33;;;;;;;8.65;1.77;;;;;;;6.22;100.00;99395.84;5048423;28;20032;-72
2023/01/15 09:54:41;;;;;;;17.80;2.85;;;;;;;6.27;100.00;99404.63;5049822;28;20025;-72
2023/01/15 09:57:12;;;;;;;16.40;1.83;;;;;;;6.27;100.00;99407.22;5050552;28;20385;-73
2023/01/15 09:59:41;;;;;;;9.27;1.35;;;;;;;6.38;100.00;99428.25;5043636;28;20473;-73
2023/01/15 10:02:22;;;;;;;11.85;2.15;;;;;;;6.51;100.00;99403.09;5040096;28;20045;-72
2023/01/15 10:04:55;;;;;;;10.48;1.55;;;;;;;6.67;100.00;99404.13;5046144;28;20035;-73
2023/01/15 10:07:56;;;;;;;7.40;1.63;;;;;;;6.79;100.00;99419.06;5060797;28;20032;-72
2023/01/15 10:10:28;;;;;;;6.28;1.58;;;;;;;6.78;98.74;99423.38;5051067;28;20036;-72
2023/01/15 10:12:59;;;;;;;12.13;1.35;;;;;;;6.72;97.49;99413.75;5053628;28;20028;-72
2023/01/15 10:15:36;;;;;;;11.70;1.65;;;;;;;6.72;97.46;99423.34;5050530;28;20044;-72
2023/01/15 10:18:06;;;;;;;10.65;1.10;;;;;;;6.72;96.38;99434.66;5053628;28;20389;-73
2023/01/15 10:20:44;;;;;;;11.82;1.42;;;;;;;6.74;93.20;99422.50;5051954;28;20063;-72
2023/01/15 10:23:28;;;;;;;6.90;1.10;;;;;;;6.67;91.33;99418.06;5046883;28;20108;-73
2023/01/15 10:26:00;;;;;;;4.70;1.30;;;;;;;6.64;91.01;99419.78;5052535;28;20440;-71
2023/01/15 10:28:47;;;;;;;8.68;1.40;;;;;;;6.68;89.01;99422.44;5050401;28;20021;-73
2023/01/15 10:31:23;;;;;;;8.18;1.20;;;;;;;6.73;89.14;99439.03;5043174;28;20032;-72
2023/01/15 10:34:01;;;;;;;6.10;0.82;;;;;;;6.81;90.52;99446.06;5066483;28;20028;-73
2023/01/15 10:36:36;;;;;;;6.43;0.93;;;;;;;6.81;91.55;99438.22;5046432;28;20033;-73
2023/01/15 10:39:14;;;;;;;8.73;1.20;;;;;;;6.78;92.58;99440.81;5052552;28;20039;-73
2023/01/15 10:42:05;;;;;;;9.43;1.38;;;;;;;6.76;94.20;99453.88;5055702;28;20029;-73
2023/01/15 10:44:47;;;;;;;12.65;1.35;;;;;;;6.76;96.12;99435.59;5050985;28;20505;-73
2023/01/15 10:47:17;;;;;;;10.35;1.77;;;;;;;6.69;96.13;99447.72;5048019;28;20025;-73
2023/01/15 10:49:44;;;;;;;10.38;1.35;;;;;;;6.64;97.67;99454.63;5047491;28;20384;-73
2023/01/15 10:52:34;;;;;;;6.20;1.15;;;;;;;6.63;98.05;99431.97;5051980;28;20132;-72
2023/01/15 10:55:15;;;;;;;5.15;0.98;;;;;;;6.70;95.81;99466.88;5041508;28;20036;-72
2023/01/15 10:58:08;;;;;;;12.75;1.40;;;;;;;6.71;97.61;99447.72;5047710;28;20484;-73
2023/01/15 11:00:34;;;;;;;9.35;1.45;;;;;;;6.72;99.39;99457.31;5050216;28;20055;-73
2023/01/15 11:03:10;;;;;;;12.93;2.22;;;;;;;6.75;96.83;99476.53;5051538;28;20041;-72
2023/01/15 11:05:37;;;;;;;11.45;1.40;;;;;;;6.81;96.75;99454.81;5054671;28;20100;-73
2023/01/15 11:08:07;;;;;;;7.18;1.50;;;;;;;6.84;96.98;99452.22;5053799;28;20017;-71
2023/01/15 11:10:32;;;;;;;7.03;1.30;;;;;;;7.26;93.99;99444.72;5051199;28;20044;-72
2023/01/15 11:21:31;;;;;;;13.35;2.13;;;;;;;7.17;92.08;99447.25;5059553;28;20043;-72
2023/01/15 11:23:59;;;;;;;9.57;1.10;;;;;;;7.19;91.71;99450.75;5048664;28;20025;-72
2023/01/15 11:26:31;;;;;;;12.20;1.48;;;;;;;7.24;91.50;99469.97;5045681;28;20061;-74
2023/01/15 11:29:00;;;;;;;11.83;1.73;;;;;;;7.30;90.42;99438.63;5048817;28;20041;-73
2023/01/15 11:31:40;;;;;;;16.73;2.13;;;;;;;7.54;88.99;99430.06;5044109;28;20291;-73
2023/01/15 11:34:17;;;;;;;12.43;1.58;;;;;;;7.50;91.00;99427.41;5041461;28;20494;-72
2023/01/15 11:36:43;;;;;;;13.73;1.83;;;;;;;7.40;90.08;99432.59;5057459;28;20054;-74
2023/01/15 11:39:22;;;;;;;5.00;1.20;;;;;;;7.36;89.96;99433.44;5054115;28;20140;-72
2023/01/15 11:52:59;;;;;;;9.25;1.60;;;;;;;7.18;98.10;99446.41;5048925;28;20101;-73
2023/01/15 11:55:26;;;;;;;10.27;1.48;;;;;;;7.18;98.66;99433.31;5061956;28;20016;-73
2023/01/15 11:57:53;;;;;;;11.85;1.52;;;;;;;7.00;100.00;99460.19;5062088;28;20181;-72
2023/01/15 12:00:24;;;;;;;9.05;1.88;;;;;;;6.75;100.00;99454.72;5059535;28;20057;-73
2023/01/15 12:02:52;;;;;;;11.55;2.38;;;;;;;6.86;100.00;99460.06;5073159;28;20476;-72
2023/01/15 12:05:24;;;;;;;11.63;1.55;;;;;;;6.91;100.00;99459.25;5062791;28;20017;-74
2023/01/15 12:07:53;;;;;;;12.73;1.20;;;;;;;6.92;100.00;99452.28;5051496;28;20029;-74
2023/01/15 12:13:17;;;;;;;13.50;2.45;;;;;;;6.93;99.08;99456.63;5050913;28;20075;-72
2023/01/15 12:15:59;;;;;;;9.10;1.30;;;;;;;6.92;96.31;99442.69;5048419;28;20043;-73
2023/01/15 12:18:30;;;;;;;9.18;2.17;;;;;;;6.92;96.14;99441.81;5063846;28;20139;-74
2023/01/15 12:21:02;;;;;;;8.18;1.60;;;;;;;6.97;98.05;99453.19;5052043;28;20449;-72
2023/01/15 12:24:06;;;;;;;9.35;1.77;;;;;;;6.98;98.74;99436.63;5045623;28;20880;-73
2023/01/15 12:26:38;;;;;;;3.92;0.98;;;;;;;6.99;98.93;99454.09;5040612;28;20041;-72
2023/01/15 12:29:21;;;;;;;11.45;1.98;;;;;;;7.03;100.00;99449.78;5045791;28;20032;-73
2023/01/15 12:31:53;;;;;;;11.52;1.63;;;;;;;7.14;98.58;99426.31;5047280;28;20052;-72
2023/01/15 12:34:24;;;;;;;11.60;1.60;;;;;;;7.15;94.22;99451.59;5066743;28;20028;-73